• Join FlightAware (Why Join?)
  • Login
  • US Flag 
01:16AM EST


 

Airport Tracker/Info


-or-


 

Live Flight TrackerFlight Track Log ✈ DAL854 ✈ 10-May-2013 ✈ KSFO - KDTW

Flight Track Log - Related Links

Times and Time Zones

All times are in EDT time to prevent confusion due to time zone crossing. See the DAL854 flight status page for this flight to view local times or setup timezone preferences in your user account.

Time Position Orientation Groundspeed Altitude Reporting Facility
EDT Latitude Longitude Course Direction KTS MPH feet Rate Location/Type
10:11AM 37.6333 -122.3500 58° Northeast 182 209 900  Level Northern Cal TRACON
10:12AM 37.6833 -122.3000 38° Northeast 231 266 2,500 1,980 Climbing Northern Cal TRACON
10:13AM 37.7167 -122.2500 50° Northeast 252 290 4,700 2,460 Climbing Northern Cal TRACON
10:14AM 37.6355 -122.4302 117° Southeast  Level FlightAware Approximate
10:14AM 37.7819 -122.1622 47° Northeast 270 311 7,600  Level Oakland Center
10:15AM 37.6415 -122.2840 72° East  Level FlightAware Approximate
10:15AM 37.8122 -122.0714 67° East 290 334 9,800  Level Oakland Center
10:16AM 37.6888 -122.1392 58° Northeast  Level FlightAware Approximate
10:16AM 37.8403 -121.9708 71° East 304 350 11,500  Level Oakland Center
10:17AM 37.8689 -121.8514 73° East 351 404 13,200 1,800 Climbing Oakland Center
10:18AM 37.9011 -121.7256 72° East 373 429 15,200 1,860 Climbing Oakland Center
10:19AM 37.9306 -121.5925 74° East 392 451 17,000 1,740 Climbing Oakland Center
10:20AM 37.9672 -121.4461 72° East 401 461 18,800 1,740 Climbing Oakland Center
10:21AM 38.0008 -121.3072 73° East 414 476 20,600 1,560 Climbing Oakland Center
10:22AM 38.0356 -121.1639 73° East 426 490 22,000 1,380 Climbing Oakland Center
10:23AM 38.0708 -121.0178 73° East 436 502 23,500 1,380 Climbing Oakland Center
10:24AM 38.0989 -120.8664 77° East 443 510 24,900 1,260 Climbing Oakland Center
10:25AM 38.1272 -120.7131 77° East 449 517 26,100 1,320 Climbing Oakland Center
10:26AM 38.1553 -120.5597 77° East 448 516 27,600 1,140 Climbing Oakland Center
10:27AM 38.1881 -120.3739 77° East 450 518 28,500 960 Climbing Oakland Center
10:28AM 38.2156 -120.2164 77° East 457 526 29,600 900 Climbing Oakland Center
10:29AM 38.2453 -120.0592 76° East 459 528 30,400 900 Climbing Oakland Center
10:30AM 38.2733 -119.9000 77° East 461 531 31,500 1,020 Climbing Oakland Center
10:31AM 38.3022 -119.7433 77° East 457 526 32,500 720 Climbing Oakland Center
10:32AM 38.3289 -119.5850 78° East 457 526 33,000 240 Climbing Oakland Center
10:34AM 38.3525 -119.4283 79° East 455 524 33,000  Level Oakland Center
10:35AM 38.3778 -119.2706 78° East 455 524 33,000  Level Oakland Center
10:36AM 38.4044 -119.1156 78° East 452 520 33,000  Level Oakland Center
10:37AM 38.4350 -118.9289 78° East 450 518 33,000  Level Oakland Center
10:38AM 38.4603 -118.7744 78° East 448 516 33,000  Level Oakland Center
10:39AM 38.4856 -118.6200 78° East 447 514 33,000  Level Oakland Center
10:40AM 38.5106 -118.4639 78° East 450 518 33,000  Level Oakland Center
10:41AM 38.5353 -118.3083 78° East 450 518 33,000  Level Oakland Center
10:42AM 38.5603 -118.1522 78° East 450 518 33,000  Level Oakland Center
10:43AM 38.5850 -117.9942 79° East 449 517 33,000  Level Oakland Center
10:44AM 38.6100 -117.8361 79° East 451 519 33,000  Level Oakland Center
10:45AM 38.6339 -117.6772 79° East 453 521 33,000  Level Oakland Center
10:46AM 38.6581 -117.5175 79° East 453 521 33,000  Level Oakland Center
10:47AM 38.6819 -117.3586 79° East 454 522 33,000  Level Oakland Center
10:47AM 38.6914 -117.2956 79° East 453 521 33,000  Level Salt Lake Center
10:48AM 38.7139 -117.1381 80° East 449 517 33,000  Level Salt Lake Center
10:49AM 38.7286 -117.0428 79° East 450 518 33,000  Level Oakland Center
10:50AM 38.7517 -116.8867 79° East 446 513 33,000  Level Oakland Center
10:50AM 38.7597 -116.8236 81° East 446 513 33,000  Level Salt Lake Center
10:51AM 38.7828 -116.6672 79° East 445 512 33,000  Level Salt Lake Center
10:52AM 38.8011 -116.5419 79° East 446 513 33,000  Level Oakland Center
10:53AM 38.8228 -116.3833 80° East 450 518 33,000  Level Oakland Center
10:53AM 38.8267 -116.3522 81° East 449 517 33,000  Level Salt Lake Center
10:54AM 38.8489 -116.1942 80° East 449 517 33,000  Level Salt Lake Center
10:55AM 38.8750 -116.0036 80° East 451 519 33,000  Level Salt Lake Center
10:56AM 38.8972 -115.8450 80° East 451 519 33,000  Level Salt Lake Center
10:57AM 38.9194 -115.6850 80° East 453 521 33,000  Level Salt Lake Center
10:58AM 38.9394 -115.5247 81° East 453 521 33,000  Level Salt Lake Center
10:59AM 38.9644 -115.3492 80° East 452 520 33,000  Level Salt Lake Center
11:00AM 38.9847 -115.1889 81° East 454 522 33,000  Level Salt Lake Center
11:01AM 39.0061 -115.0286 80° East 455 524 33,000  Level Salt Lake Center
11:03AM 39.0269 -114.8708 80° East 449 517 33,000  Level Salt Lake Center
11:04AM 39.0464 -114.7119 81° East 451 519 33,000  Level Salt Lake Center
11:05AM 39.0669 -114.5539 80° East 450 518 33,000  Level Salt Lake Center
11:06AM 39.0903 -114.3642 81° East 448 516 33,000  Level Salt Lake Center
11:07AM 39.1094 -114.2072 81° East 446 513 33,000  Level Salt Lake Center
11:08AM 39.1286 -114.0497 81° East 446 513 33,000  Level Salt Lake Center
11:09AM 39.1467 -113.8892 82° East 451 519 33,000  Level Salt Lake Center
11:10AM 39.1661 -113.7297 81° East 452 520 33,000  Level Salt Lake Center
11:11AM 39.1850 -113.5697 81° East 451 519 33,000  Level Salt Lake Center
11:12AM 39.2064 -113.3769 82° East 453 521 33,000  Level Salt Lake Center
11:13AM 39.2250 -113.2178 81° East 450 518 33,000  Level Salt Lake Center
11:14AM 39.2428 -113.0564 82° East 453 521 33,000  Level Salt Lake Center
11:15AM 39.2608 -112.8947 82° East 455 524 33,000  Level Salt Lake Center
11:16AM 39.2778 -112.7344 82° East 452 520 33,000  Level Salt Lake Center
11:17AM 39.2975 -112.5589 82° East 451 519 33,000  Level Salt Lake Center
11:18AM 39.3222 -112.4033 78° East 447 514 33,000  Level Salt Lake Center
11:19AM 39.3514 -112.2489 76° East 444 511 33,000  Level Salt Lake Center
11:20AM 39.3794 -112.0950 77° East 442 509 33,000  Level Salt Lake Center
11:21AM 39.4142 -111.9117 76° East 441 507 33,000  Level Salt Lake Center
11:22AM 39.4417 -111.7581 77° East 441 507 33,000  Level Salt Lake Center
11:23AM 39.4697 -111.6044 77° East 442 509 33,000  Level Salt Lake Center
11:24AM 39.4972 -111.4522 77° East 438 504 33,000  Level Salt Lake Center
11:25AM 39.5236 -111.3017 77° East 431 496 33,000  Level Salt Lake Center
11:26AM 39.5522 -111.1397 77° East 423 487 33,000  Level Salt Lake Center
11:27AM 39.5806 -110.9750 77° East 421 484 33,000  Level Salt Lake Center
11:28AM 39.6061 -110.8331 77° East 422 486 33,000  Level Salt Lake Center
11:29AM 39.6336 -110.6686 78° East 419 482 33,000  Level Salt Lake Center
11:30AM 39.6578 -110.5267 77° East 420 483 33,000  Level Salt Lake Center
11:31AM 39.6822 -110.3872 77° East 417 480 33,000  Level Salt Lake Center
11:32AM 39.7078 -110.2222 79° East 416 479 33,000  Level Salt Lake Center
11:34AM 39.7322 -110.0811 77° East 419 482 33,000  Level Salt Lake Center
11:35AM 39.7600 -109.9158 78° East 419 482 33,000  Level Salt Lake Center
11:36AM 39.7853 -109.7744 77° East 420 483 33,000  Level Salt Lake Center
11:37AM 39.8236 -109.6128 73° East 418 481 33,000  Level Salt Lake Center
11:37AM 39.8283 -109.5878 76° East 418 481 33,000  Level Denver Center
11:38AM 39.8647 -109.4239 74° East 422 486 33,000  Level Denver Center
11:39AM 39.8975 -109.2839 73° East 421 484 33,000 540 Level Denver Center
11:40AM 39.9331 -109.1200 74° East 418 481 34,200 960 Climbing Denver Center
11:41AM 39.9531 -109.0289 74° East 414 476 34,800 420 Climbing Salt Lake Center
11:42AM 39.9889 -108.8658 74° East 416 479 35,000 60 Climbing Salt Lake Center
11:43AM 40.0200 -108.7250 74° East 418 481 35,000  Level Salt Lake Center
11:44AM 40.0544 -108.5597 75° East 420 483 35,000  Level Salt Lake Center
11:45AM 40.0847 -108.4183 74° East 419 482 35,000  Level Salt Lake Center
11:46AM 40.1197 -108.2553 74° East 418 481 35,000  Level Salt Lake Center
11:47AM 40.1481 -108.1147 75° East 417 480 35,000  Level Salt Lake Center
11:48AM 40.1828 -107.9525 74° East 415 478 35,000  Level Salt Lake Center
11:49AM 40.2156 -107.7900 75° East 413 475 35,000  Level Denver Center
11:50AM 40.2494 -107.6269 75° East 414 476 35,000  Level Denver Center
11:51AM 40.2789 -107.4861 75° East 417 480 35,000  Level Denver Center
11:52AM 40.3108 -107.3200 76° East 419 482 35,000  Level Denver Center
11:53AM 40.3403 -107.1786 75° East 420 483 35,000  Level Denver Center
11:54AM 40.3739 -107.0117 75° East 423 487 35,000  Level Denver Center
11:55AM 40.4042 -106.8597 75° East 424 488 35,000  Level Denver Center
11:57AM 40.4347 -106.7103 75° East 423 487 35,000  Level Denver Center
11:58AM 40.4639 -106.5589 76° East 425 489 35,000  Level Denver Center
11:59AM 40.4964 -106.3919 76° East 421 484 35,000  Level Denver Center
12:00PM 40.5231 -106.2497 76° East 420 483 35,000  Level Denver Center
12:01PM 40.5500 -106.1089 76° East 417 480 35,000  Level Denver Center
12:02PM 40.5825 -105.9361 76° East 414 476 35,000  Level Denver Center
12:03PM 40.6094 -105.7875 77° East 415 478 35,000  Level Denver Center
12:04PM 40.6381 -105.6394 76° East 416 479 35,000  Level Denver Center
12:05PM 40.6656 -105.4919 76° East 415 478 35,000  Level Denver Center
12:06PM 40.6947 -105.3214 77° East 428 493 35,000  Level Denver Center
12:07PM 40.7222 -105.1742 76° East 432 497 35,000  Level Denver Center
12:08PM 40.7522 -105.0019 77° East 431 496 35,000  Level Denver Center
12:09PM 40.7794 -104.8558 76° East 429 494 35,000  Level Denver Center
12:10PM 40.8114 -104.6806 76° East 438 504 35,000  Level Denver Center
12:11PM 40.8356 -104.5306 78° East 441 507 35,000  Level Denver Center
12:12PM 40.8664 -104.3603 76° East 431 496 35,000  Level Denver Center
12:13PM 40.8925 -104.2103 77° East 434 499 35,000  Level Denver Center
12:14PM 40.9231 -104.0356 77° East 439 505 35,000  Level Denver Center
12:15PM 40.9478 -103.8875 77° East 433 498 35,000  Level Denver Center
12:16PM 40.9725 -103.7378 78° East 435 501 35,000  Level Denver Center
12:17PM 41.0006 -103.5658 78° East 431 496 35,000  Level Denver Center
12:18PM 41.0242 -103.4158 78° East 435 501 35,000  Level Denver Center
12:19PM 41.0531 -103.2428 77° East 433 498 35,000  Level Denver Center
12:20PM 41.0783 -103.0922 77° East 436 502 35,000  Level Denver Center
12:21PM 41.1042 -102.9061 80° East 437 503 35,000  Level Denver Center
12:22PM 41.1128 -102.7525 86° East 438 504 35,000  Level Denver Center
12:23PM 41.1261 -102.5975 83° East 442 509 35,000  Level Denver Center
12:24PM 41.1408 -102.4158 84° East 444 511 35,000  Level Denver Center
12:25PM 41.1514 -102.2589 85° East 445 512 35,000  Level Denver Center
12:27PM 41.1650 -102.0744 84° East 449 517 35,000  Level Denver Center
12:28PM 41.1775 -101.9158 84° East 451 519 35,000  Level Denver Center
12:29PM 41.1914 -101.7267 84° East 458 527 35,000  Level Denver Center
12:30PM 41.2017 -101.5667 85° East 457 526 35,000  Level Denver Center
12:31PM 41.2150 -101.3789 85° East 456 525 35,000  Level Denver Center
12:32PM 41.2258 -101.2172 85° East 457 526 35,000  Level Denver Center
12:33PM 41.2367 -101.0278 86° East 459 528 35,000  Level Denver Center
12:34PM 41.2478 -100.8650 85° East 460 529 35,000  Level Denver Center
12:35PM 41.2578 -100.7036 85° East 455 524 35,000  Level Denver Center
12:36PM 41.2692 -100.5139 85° East 458 527 35,000  Level Denver Center
12:37PM 41.2789 -100.3528 85° East 456 525 35,000  Level Denver Center
12:38PM 41.2892 -100.1636 86° East 457 526 35,000  Level Denver Center
12:39PM 41.2981 -100.0008 86° East 459 528 35,000  Level Denver Center
12:40PM 41.3086 -99.8089 86° East 463 533 35,000  Level Denver Center
12:41PM 41.3178 -99.6439 86° East 465 535 35,000  Level Denver Center
12:42PM 41.3253 -99.4761 87° East 471 542 35,000  Level Denver Center
12:43PM 41.3358 -99.2739 86° East 468 539 35,000  Level Denver Center
12:44PM 41.3453 -99.0986 86° East 470 541 35,000  Level Denver Center
12:45PM 41.3519 -98.9225 87° East 470 541 35,000  Level Denver Center
12:46PM 41.3567 -98.7983 87° East 469 540 35,000  Level Minneapolis Center
12:47PM 41.3644 -98.6242 87° East 471 542 35,000  Level Minneapolis Center
12:48PM 41.3733 -98.4269 86° East 475 547 35,000  Level Minneapolis Center
12:49PM 41.3908 -98.2544 82° East 472 543 35,000  Level Minneapolis Center
12:50PM 41.4236 -98.0719 76° East 472 543 35,000  Level Minneapolis Center
12:51PM 41.4517 -97.9014 78° East 472 543 35,000  Level Minneapolis Center
12:52PM 41.4808 -97.7303 77° East 474 545 35,000  Level Minneapolis Center
12:53PM 41.5086 -97.5561 78° East 477 549 35,000  Level Minneapolis Center
12:54PM 41.5358 -97.3833 78° East 477 549 35,000  Level Minneapolis Center
12:55PM 41.5650 -97.2103 77° East 479 551 35,000  Level Minneapolis Center
12:56PM 41.5917 -97.0350 78° East 479 551 35,000  Level Minneapolis Center
12:57PM 41.6242 -96.8261 78° East 478 550 35,000  Level Minneapolis Center
12:58PM 41.6514 -96.6514 78° East 478 550 35,000  Level Minneapolis Center
12:59PM 41.6789 -96.4783 78° East 475 547 35,000  Level Minneapolis Center
01:00PM 41.7047 -96.3031 79° East 476 548 35,000  Level Minneapolis Center
01:01PM 41.7311 -96.1264 79° East 478 550 35,000  Level Minneapolis Center
01:02PM 41.7572 -95.9472 79° East 484 557 35,000  Level Minneapolis Center
01:03PM 41.7836 -95.7703 79° East 482 555 35,000  Level Minneapolis Center
01:04PM 41.8086 -95.5906 79° East 486 559 35,000  Level Minneapolis Center
01:06PM 41.8394 -95.3761 79° East 487 560 35,000  Level Minneapolis Center
01:07PM 41.8664 -95.1983 78° East 486 559 35,000  Level Minneapolis Center
01:08PM 41.8906 -95.0181 80° East 488 562 35,000  Level Minneapolis Center
01:09PM 41.9156 -94.8372 79° East 491 565 35,000  Level Minneapolis Center
01:10PM 41.9381 -94.6569 80° East 489 563 35,000  Level Minneapolis Center
01:11PM 41.9619 -94.4756 80° East 491 565 35,000  Level Minneapolis Center
01:12PM 41.9917 -94.2592 79° East 490 564 35,000  Level Minneapolis Center
01:13PM 42.0153 -94.0778 80° East 491 565 35,000  Level Minneapolis Center
01:14PM 42.0386 -93.8964 80° East 492 566 35,000  Level Minneapolis Center
01:15PM 42.0633 -93.7125 80° East 503 579 35,000  Level Minneapolis Center
01:16PM 42.0861 -93.5297 80° East 501 577 35,000  Level Minneapolis Center
01:17PM 42.1083 -93.3461 81° East 503 579 35,000  Level Minneapolis Center
01:18PM 42.1364 -93.1261 80° East 503 579 35,000  Level Minneapolis Center
01:19PM 42.1578 -92.9419 81° East 503 579 35,000  Level Minneapolis Center
01:20PM 42.1781 -92.7586 81° East 499 574 35,000  Level Minneapolis Center
01:21PM 42.2003 -92.5758 81° East 501 577 35,000  Level Minneapolis Center
01:22PM 42.2225 -92.3936 81° East 499 574 35,000  Level Minneapolis Center
01:23PM 42.2472 -92.1747 81° East 499 574 35,000  Level Minneapolis Center
01:24PM 42.2619 -92.0283 82° East 501 577 35,000  Level Chicago Center
01:25PM 42.2872 -91.8119 81° East 498 573 35,000  Level Chicago Center
01:26PM 42.3061 -91.6314 82° East 496 571 35,000  Level Chicago Center
01:27PM 42.3253 -91.4506 82° East 495 570 35,000  Level Chicago Center
01:28PM 42.3444 -91.2703 82° East 496 571 35,000  Level Chicago Center
01:29PM 42.3664 -91.0547 82° East 492 566 35,000  Level Chicago Center
01:30PM 42.3847 -90.8728 82° East 494 568 35,000  Level Chicago Center
01:31PM 42.4061 -90.6931 81° East 493 567 35,000  Level Chicago Center
01:32PM 42.4575 -90.5239 68° East 492 566 35,100 540 Climbing Chicago Center
01:33PM 42.5200 -90.3200 67° East 492 566 36,200 780 Climbing Chicago Center
01:34PM 42.5717 -90.1506 67° East 491 565 36,800 360 Climbing Chicago Center
01:35PM 42.6242 -89.9767 68° East 501 577 37,000 60 Climbing Chicago Center
01:36PM 42.6794 -89.7869 68° East 504 580 37,000  Level Chicago Center
01:37PM 42.7319 -89.6133 68° East 501 577 37,000  Level Chicago Center
01:39PM 42.7842 -89.4386 68° East 500 575 37,000  Level Chicago Center
01:40PM 42.8433 -89.2333 68° East 499 574 37,000  Level Chicago Center
01:41PM 42.8944 -89.0589 68° East 498 573 37,000  Level Chicago Center
01:42PM 42.9450 -88.8833 68° East 497 572 37,000  Level Chicago Center
01:43PM 42.9953 -88.7086 68° East 498 573 37,000  Level Chicago Center
01:44PM 43.0447 -88.5317 69° East 500 575 37,000  Level Chicago Center
01:45PM 43.1033 -88.3264 69° East 501 577 37,000  Level Chicago Center
01:46PM 43.1342 -88.1439 77° East 498 573 37,000  Level Chicago Center
01:47PM 43.1567 -87.9556 81° East 501 577 37,000  Level Chicago Center
01:48PM 43.1794 -87.7694 80° East 500 575 37,000 -240 Level Chicago Center
01:49PM 43.2067 -87.5528 80° East 496 571 36,600 -720 Descending Chicago Center
01:50PM 43.2278 -87.3708 81° East 485 558 35,600 -1,080 Descending Chicago Center
01:51PM 43.2475 -87.2144 80° East 480 552 34,400 -1,260 Descending Chicago Center
01:52PM 43.2728 -86.9981 81° East 479 551 33,000 -720 Descending Chicago Center
01:53PM 43.2917 -86.8164 82° East 481 554 33,000  Level Chicago Center
01:54PM 43.3128 -86.6364 81° East 479 551 33,000  Level Chicago Center
01:55PM 43.3333 -86.4550 81° East 480 552 33,000  Level Chicago Center
01:56PM 43.3531 -86.2719 82° East 481 554 33,000  Level Chicago Center
01:57PM 43.3728 -86.0878 82° East 482 555 33,000 -780 Level Chicago Center
01:58PM 43.3708 -85.9050 91° East 477 549 31,400 -1,860 Descending Chicago Center
01:59PM 43.3400 -85.7314 104° East 468 539 29,200 -2,280 Descending Chicago Center
02:00PM 43.3036 -85.5317 104° East 452 520 26,700 -2,220 Descending Chicago Center
02:01PM 43.2756 -85.3714 103° East 437 503 24,700 -1,980 Descending Chicago Center
02:02PM 43.2547 -85.2758 107° East 453 521 23,500 -1,080 Descending Cleveland Center
02:03PM 43.2278 -85.1197 103° East 425 489 23,000 -300 Descending Cleveland Center
02:04PM 43.1939 -84.9664 107° East 425 489 23,000  Level Cleveland Center
02:05PM 43.1536 -84.8183 110° East 420 483 23,000  Level Cleveland Center
02:06PM 43.1089 -84.6700 112° Southeast 420 483 23,000 -120 Level Cleveland Center
02:06PM 43.0958 -84.6153 108° East 416 479 22,900 -1,440 Descending Chicago Center
02:07PM 43.0472 -84.4492 112° Southeast 395 455 20,800 -1,980 Descending Chicago Center
02:08PM 43.0069 -84.3072 111° Southeast 401 461 18,900 -1,800 Descending Chicago Center
02:09PM 42.9914 -84.2650 117° Southeast 399 459 18,300 -1,980 Descending Cleveland Center
02:10PM 42.9503 -84.1119 110° East 388 447 16,200 -1,860 Descending Cleveland Center
02:11PM 42.9142 -83.9936 113° Southeast 387 445 14,600 -1,680 Descending Cleveland Center
02:12PM 42.8739 -83.8669 113° Southeast 375 432 12,900 -1,440 Descending Cleveland Center
02:13PM 42.8397 -83.7544 112° Southeast 335 386 12,000 -720 Descending Cleveland Center
02:14PM 42.7619 -83.6942 150° Southeast 241 277 11,400 -1,020 Descending Cleveland Center
02:15PM 42.7067 -83.6603 156° South 247 284 9,900 -1,440 Descending Cleveland Center
02:16PM 42.6411 -83.6203 156° South 249 287 8,700 -1,440 Descending Cleveland Center
02:17PM 42.5800 -83.5639 146° Southeast 257 296 6,900 -1,260 Descending Cleveland Center
02:18PM 42.5506 -83.4919 119° Southeast 256 295 6,100 -480 Descending Cleveland Center
02:19PM 42.5819 -83.4031 64° Northeast 244 281 6,000 -300 Descending Cleveland Center
02:20PM 42.5736 -83.3211 98° East 217 250 5,600 -840 Descending Cleveland Center
02:21PM 42.5547 -83.2383 107° East 213 245 4,400 -840 Descending Cleveland Center
02:22PM 42.5097 -83.1942 144° Southeast 189 217 4,000 -240 Descending Cleveland Center
02:23PM 42.4597 -83.1950 181° South 174 200 4,000  Level Cleveland Center
02:24PM 42.4172 -83.2242 207° Southwest 176 203 4,000  Level Cleveland Center
02:25PM 42.3728 -83.2589 210° Southwest 168 193 4,000 -480 Level Cleveland Center
02:26PM 42.3325 -83.2881 208° Southwest 163 188 3,100 -900 Descending Cleveland Center